createdAt,value
2019-05-07T00:01:54.795Z,18.20
2019-05-07T00:06:55.112Z,14.50
2019-05-07T00:11:57.050Z,21.03
2019-05-07T00:17:04.570Z,18.67
2019-05-07T00:22:09.791Z,19.00
2019-05-07T00:27:13.123Z,22.17
2019-05-07T00:32:15.056Z,18.40
2019-05-07T00:37:36.518Z,17.83
2019-05-07T00:42:56.980Z,21.97
2019-05-07T00:47:58.892Z,20.03
2019-05-07T00:53:02.119Z,20.03
2019-05-07T00:58:04.117Z,17.60
2019-05-07T01:03:05.943Z,17.40
2019-05-07T01:08:07.872Z,20.50
2019-05-07T01:13:12.024Z,17.17
2019-05-07T01:18:13.600Z,18.73
2019-05-07T01:23:15.533Z,16.83
2019-05-07T01:28:17.466Z,22.20
2019-05-07T01:33:27.332Z,18.37
2019-05-07T01:38:29.252Z,21.80
2019-05-07T01:43:32.130Z,24.40
2019-05-07T01:48:34.269Z,26.40
2019-05-07T01:53:36.153Z,20.53
2019-05-07T01:58:38.073Z,22.20
2019-05-07T02:04:12.762Z,23.57
2019-05-07T02:09:27.276Z,23.63
2019-05-07T02:14:29.335Z,24.63
2019-05-07T02:19:32.910Z,23.83
2019-05-07T02:24:35.163Z,26.37
2019-05-07T02:29:38.232Z,22.67
2019-05-07T02:34:44.257Z,23.33
2019-05-07T02:39:53.252Z,25.17
2019-05-07T02:45:17.526Z,23.17
2019-05-07T02:50:34.029Z,29.03
2019-05-07T02:55:43.544Z,27.93
2019-05-07T03:00:48.305Z,27.17
2019-05-07T03:05:53.768Z,25.27
2019-05-07T03:10:58.035Z,27.10
2019-05-07T03:16:03.524Z,24.17
2019-05-07T03:21:24.083Z,23.23
2019-05-07T03:26:29.070Z,26.70
2019-05-07T03:31:49.345Z,24.30
2019-05-07T03:36:56.439Z,30.77
2019-05-07T03:41:56.678Z,27.73
2019-05-07T03:47:15.106Z,25.37
2019-05-07T03:52:17.246Z,23.57
2019-05-07T03:57:19.193Z,22.23
2019-05-07T04:02:23.930Z,23.43
2019-05-07T04:07:24.936Z,19.20
2019-05-07T04:12:29.897Z,23.77
2019-05-07T04:17:33.914Z,21.03
2019-05-07T04:22:36.060Z,27.10
2019-05-07T04:27:47.192Z,21.43
2019-05-07T04:32:54.141Z,25.37
2019-05-07T04:38:01.578Z,26.00
2019-05-07T04:43:02.718Z,24.57
2019-05-07T04:48:06.578Z,22.20
2019-05-07T04:53:08.626Z,21.83
2019-05-07T04:58:13.743Z,26.33
2019-05-07T05:03:19.943Z,23.90
2019-05-07T05:08:25.679Z,25.87
2019-05-07T05:13:27.788Z,28.33
2019-05-07T05:18:29.682Z,24.73
2019-05-07T05:24:08.839Z,27.53
2019-05-07T05:29:19.463Z,29.83
2019-05-07T05:34:22.877Z,24.63
2019-05-07T05:39:24.777Z,27.47
2019-05-07T05:44:32.046Z,21.83
2019-05-07T05:49:34.242Z,29.90
2019-05-07T05:54:56.552Z,25.23
2019-05-07T06:00:16.508Z,27.50
2019-05-07T06:05:38.302Z,23.60
2019-05-07T06:10:51.880Z,20.67
2019-05-07T06:16:03.151Z,21.10
2019-05-07T06:21:16.163Z,15.07
2019-05-07T06:26:18.197Z,17.03
2019-05-07T06:31:23.069Z,11.07
2019-05-07T06:36:33.568Z,14.90
2019-05-07T06:42:03.969Z,15.37
2019-05-07T06:47:05.941Z,13.47
2019-05-07T06:52:08.063Z,8.83
2019-05-07T06:57:09.996Z,13.03
2019-05-07T07:02:32.851Z,13.67
2019-05-07T07:07:52.558Z,9.93
2019-05-07T07:12:54.530Z,15.47
2019-05-07T07:17:56.451Z,21.97
2019-05-07T07:22:58.406Z,18.63
2019-05-07T07:28:02.837Z,20.60
2019-05-07T07:33:07.870Z,20.53
2019-05-07T07:38:27.906Z,20.90
2019-05-07T07:43:29.953Z,21.63
2019-05-07T07:48:32.245Z,24.47
2019-05-07T07:53:35.567Z,25.27
2019-05-07T07:59:12.723Z,23.50
2019-05-07T08:04:19.133Z,23.73
2019-05-07T08:09:24.008Z,22.50
2019-05-07T08:14:25.660Z,25.83
2019-05-07T08:19:27.607Z,22.90
2019-05-07T08:24:34.848Z,19.70
2019-05-07T08:29:37.063Z,22.33
2019-05-07T08:34:43.830Z,26.43
2019-05-07T08:39:45.755Z,22.70
2019-05-07T08:45:02.898Z,21.60
2019-05-07T08:50:05.127Z,23.20
2019-05-07T08:55:07.089Z,21.37
2019-05-07T09:00:09.600Z,22.10
2019-05-07T09:05:13.055Z,22.87
2019-05-07T09:10:14.938Z,30.67
2019-05-07T09:15:16.846Z,24.97
2019-05-07T09:20:18.745Z,28.03
2019-05-07T09:25:22.313Z,24.57
2019-05-07T09:30:44.195Z,23.73
2019-05-07T09:35:52.862Z,25.73
2019-05-07T09:40:56.983Z,23.20
2019-05-07T09:46:02.672Z,28.07
2019-05-07T09:51:06.640Z,22.43
2019-05-07T09:56:08.687Z,27.70
2019-05-07T10:01:12.545Z,25.33
2019-05-07T10:06:18.791Z,30.63
2019-05-07T10:11:39.467Z,24.07
2019-05-07T10:17:06.617Z,23.87
2019-05-07T10:22:12.593Z,26.50
2019-05-07T10:27:15.608Z,23.90
2019-05-07T10:32:17.510Z,28.60
2019-05-07T10:37:19.804Z,27.43
2019-05-07T10:42:22.728Z,21.40
2019-05-07T10:47:38.142Z,21.43
2019-05-07T10:52:42.479Z,20.73
2019-05-07T10:57:44.657Z,19.70
2019-05-07T11:02:46.905Z,21.23
2019-05-07T11:07:48.936Z,24.70
2019-05-07T11:12:51.714Z,18.17
2019-05-07T11:18:06.354Z,21.23
2019-05-07T11:23:08.696Z,24.43
2019-05-07T11:28:12.462Z,23.07
2019-05-07T11:33:16.300Z,28.00
2019-05-07T11:38:21.553Z,25.23
2019-05-07T11:43:44.574Z,20.13
2019-05-07T11:48:54.696Z,25.77
2019-05-07T11:54:09.721Z,25.03
2019-05-07T11:59:13.476Z,22.17
2019-05-07T12:04:18.408Z,23.10
2019-05-07T12:09:22.456Z,26.13
2019-05-07T12:14:30.923Z,24.23
2019-05-07T12:19:32.924Z,26.30
2019-05-07T12:24:34.743Z,25.97
2019-05-07T12:29:36.640Z,24.93
2019-05-07T12:34:45.942Z,22.87
2019-05-07T12:39:47.856Z,24.63
2019-05-07T12:44:51.750Z,25.90
2019-05-07T12:49:53.783Z,25.40
2019-05-07T12:55:03.332Z,26.70
2019-05-07T13:00:24.408Z,23.33
2019-05-07T13:05:26.713Z,24.40
2019-05-07T13:10:32.652Z,23.30
2019-05-07T13:15:34.588Z,21.30
2019-05-07T13:20:36.489Z,22.13
2019-05-07T13:25:38.450Z,24.03
2019-05-07T13:30:43.904Z,24.50
2019-05-07T13:35:46.206Z,24.93
2019-05-07T13:41:02.189Z,29.37
2019-05-07T13:46:12.214Z,28.27
2019-05-07T13:51:16.510Z,27.07
2019-05-07T13:56:22.473Z,26.90
2019-05-07T14:01:50.257Z,25.17
2019-05-07T14:06:52.992Z,30.93
2019-05-07T14:11:57.570Z,26.70
2019-05-07T14:16:59.491Z,23.43
2019-05-07T14:22:13.912Z,20.20
2019-05-07T14:27:05.240Z,24.07
2019-05-07T14:32:32.699Z,30.70
2019-05-07T14:37:41.829Z,26.40
2019-05-07T14:42:49.264Z,23.20
2019-05-07T14:47:52.210Z,25.27
2019-05-07T14:52:55.199Z,24.30
2019-05-07T14:57:59.282Z,25.00
2019-05-07T15:03:01.927Z,26.80
2019-05-07T15:08:10.604Z,20.40
2019-05-07T15:13:12.576Z,26.07
2019-05-07T15:18:22.764Z,32.33
2019-05-07T15:23:31.444Z,21.87
2019-05-07T15:28:34.697Z,20.40
2019-05-07T15:33:36.691Z,25.67
2019-05-07T15:38:42.878Z,21.20
2019-05-07T15:43:46.948Z,20.37
2019-05-07T15:48:48.954Z,18.10
2019-05-07T15:53:55.107Z,19.73
2019-05-07T15:58:59.067Z,18.37
2019-05-07T16:04:02.770Z,21.70
2019-05-07T16:09:08.039Z,17.73
2019-05-07T16:14:32.069Z,20.30
2019-05-07T16:19:34.146Z,18.03
2019-05-07T16:24:36.155Z,16.87
2019-05-07T16:29:42.036Z,18.90
2019-05-07T16:34:44.135Z,21.20
2019-05-07T16:39:45.935Z,18.53
2019-05-07T16:44:48.074Z,19.20
2019-05-07T16:49:52.574Z,21.93
2019-05-07T16:54:54.773Z,24.70
2019-05-07T16:59:58.481Z,23.30
2019-05-07T17:05:12.576Z,21.33
2019-05-07T17:10:14.666Z,22.87
2019-05-07T17:15:17.136Z,22.73
2019-05-07T17:20:19.075Z,20.80
2019-05-07T17:25:36.398Z,22.33
2019-05-07T17:30:38.320Z,22.33
2019-05-07T17:35:42.323Z,19.70
2019-05-07T17:40:44.392Z,22.10
2019-05-07T17:45:48.369Z,20.33
2019-05-07T17:51:17.201Z,20.20
2019-05-07T17:56:19.513Z,23.53
2019-05-07T18:01:28.451Z,27.10
2019-05-07T18:06:32.148Z,25.10
2019-05-07T18:11:34.350Z,25.63
2019-05-07T18:17:02.163Z,22.30
2019-05-07T18:22:07.068Z,23.40
2019-05-07T18:27:12.668Z,22.70
2019-05-07T18:32:14.413Z,26.97
2019-05-07T18:37:19.292Z,24.73
2019-05-07T18:42:23.407Z,27.63
2019-05-07T18:47:26.921Z,25.50
2019-05-07T18:52:29.142Z,23.87
2019-05-07T18:57:32.800Z,28.03
2019-05-07T19:02:35.208Z,24.20
2019-05-07T19:07:41.694Z,26.20
2019-05-07T19:12:44.561Z,24.87
2019-05-07T19:17:48.108Z,22.47
2019-05-07T19:22:51.850Z,27.33
2019-05-07T19:27:56.390Z,27.50
2019-05-07T19:32:58.467Z,27.83
2019-05-07T19:38:02.924Z,28.73
2019-05-07T19:43:04.980Z,23.70
2019-05-07T19:48:09.038Z,29.37
2019-05-07T19:53:12.488Z,31.47
2019-05-07T19:58:15.941Z,28.03
2019-05-07T20:03:19.346Z,27.10
2019-05-07T20:08:21.281Z,32.13
2019-05-07T20:13:23.547Z,32.60
2019-05-07T20:18:25.496Z,28.43
2019-05-07T20:23:27.573Z,27.87
2019-05-07T20:28:32.613Z,30.07
2019-05-07T20:33:36.349Z,28.33
2019-05-07T20:38:38.308Z,31.30
2019-05-07T20:43:42.679Z,30.07
2019-05-07T20:48:44.159Z,29.90
2019-05-07T20:54:17.712Z,31.80
2019-05-07T20:59:24.312Z,37.30
2019-05-07T21:04:32.818Z,28.50
2019-05-07T21:09:35.372Z,32.37
2019-05-07T21:14:37.409Z,36.33
2019-05-07T21:19:42.451Z,31.00
2019-05-07T21:24:47.036Z,34.87
2019-05-07T21:29:52.739Z,33.33
2019-05-07T21:34:56.747Z,37.67
2019-05-07T21:39:58.672Z,32.00
2019-05-07T21:45:03.002Z,35.07
2019-05-07T21:50:09.763Z,36.37
2019-05-07T21:55:38.161Z,31.80
2019-05-07T22:00:54.710Z,33.33
2019-05-07T22:05:56.802Z,33.10
2019-05-07T22:10:59.038Z,34.97
2019-05-07T22:16:02.568Z,34.63
2019-05-07T22:21:04.841Z,37.00
2019-05-07T22:26:20.156Z,36.47
2019-05-07T22:31:35.062Z,38.40
2019-05-07T22:36:37.252Z,31.20
2019-05-07T22:41:39.268Z,33.53
2019-05-07T22:46:42.719Z,35.40
2019-05-07T22:51:44.733Z,37.17
2019-05-07T22:57:16.798Z,36.23
2019-05-07T23:02:18.627Z,34.07
2019-05-07T23:07:22.766Z,32.63
2019-05-07T23:12:24.703Z,33.67
2019-05-07T23:17:26.566Z,41.23
2019-05-07T23:22:29.628Z,36.83
2019-05-07T23:27:33.433Z,43.03
2019-05-07T23:32:35.557Z,36.77
2019-05-07T23:37:37.496Z,40.07
2019-05-07T23:42:42.403Z,39.43
2019-05-07T23:47:46.087Z,34.10
2019-05-07T23:52:48.125Z,40.33
2019-05-07T23:57:52.385Z,40.87
